createdAt,value
2018-10-16T00:00:56.138Z,11.01
2018-10-16T00:01:56.057Z,10.98
2018-10-16T00:03:48.841Z,10.94
2018-10-16T00:04:48.757Z,10.84
2018-10-16T00:06:41.701Z,10.84
2018-10-16T00:07:41.450Z,10.93
2018-10-16T00:09:33.393Z,10.94
2018-10-16T00:10:33.310Z,10.98
2018-10-16T00:12:25.254Z,11.02
2018-10-16T00:13:25.193Z,10.95
2018-10-16T00:15:18.027Z,11.08
2018-10-16T00:16:17.906Z,11.03
2018-10-16T00:18:09.735Z,11.01
2018-10-16T00:19:09.664Z,10.95
2018-10-16T00:21:02.449Z,10.90
2018-10-16T00:22:02.363Z,10.83
2018-10-16T00:23:55.150Z,10.83
2018-10-16T00:24:55.074Z,10.80
2018-10-16T00:26:46.962Z,10.69
2018-10-16T00:27:46.894Z,10.58
2018-10-16T00:29:39.683Z,10.65
2018-10-16T00:30:39.606Z,10.66
2018-10-16T00:32:32.421Z,10.69
2018-10-16T00:33:32.327Z,10.62
2018-10-16T00:35:25.111Z,10.84
2018-10-16T00:36:25.035Z,10.63
2018-10-16T00:38:17.838Z,10.66
2018-10-16T00:39:17.760Z,10.58
2018-10-16T00:41:09.530Z,10.66
2018-10-16T00:42:09.449Z,10.62
2018-10-16T00:44:01.217Z,10.63
2018-10-16T00:45:01.151Z,10.55
2018-10-16T00:46:53.902Z,10.60
2018-10-16T00:47:53.832Z,10.49
2018-10-16T00:49:46.669Z,10.52
2018-10-16T00:50:46.552Z,10.46
2018-10-16T00:52:39.336Z,10.42
2018-10-16T00:53:39.278Z,10.32
2018-10-16T00:55:32.043Z,10.51
2018-10-16T00:56:31.943Z,10.38
2018-10-16T00:58:23.832Z,10.28
2018-10-16T00:59:23.764Z,10.36
2018-10-16T01:01:15.674Z,10.24
2018-10-16T01:02:15.589Z,10.28
2018-10-16T01:04:07.488Z,10.16
2018-10-16T01:05:07.428Z,10.17
2018-10-16T01:07:00.208Z,10.24
2018-10-16T01:08:00.138Z,10.07
2018-10-16T01:09:51.909Z,10.04
2018-10-16T01:10:51.832Z,10.07
2018-10-16T01:12:43.683Z,10.25
2018-10-16T01:13:43.623Z,10.22
2018-10-16T01:15:36.435Z,10.22
2018-10-16T01:16:36.355Z,10.20
2018-10-16T01:18:29.130Z,10.24
2018-10-16T01:19:29.060Z,10.28
2018-10-16T01:21:21.822Z,10.39
2018-10-16T01:22:21.781Z,10.31
2018-10-16T01:24:14.582Z,10.35
2018-10-16T01:25:14.464Z,10.29
2018-10-16T01:27:07.239Z,10.31
2018-10-16T01:28:07.184Z,10.18
2018-10-16T01:29:59.946Z,10.18
2018-10-16T01:30:59.870Z,10.17
2018-10-16T01:32:51.826Z,10.20
2018-10-16T01:33:51.760Z,10.17
2018-10-16T01:35:44.532Z,10.17
2018-10-16T01:36:44.448Z,10.09
2018-10-16T01:38:37.292Z,10.04
2018-10-16T01:39:37.228Z,9.99
2018-10-16T01:41:29.045Z,9.96
2018-10-16T01:42:28.967Z,9.88
2018-10-16T01:44:20.856Z,9.92
2018-10-16T01:45:20.790Z,9.86
2018-10-16T01:47:13.577Z,9.89
2018-10-16T01:48:13.489Z,9.78
2018-10-16T01:50:06.281Z,9.85
2018-10-16T01:51:06.195Z,9.85
2018-10-16T01:52:58.988Z,9.80
2018-10-16T01:53:58.916Z,9.77
2018-10-16T01:55:51.691Z,9.71
2018-10-16T01:56:51.610Z,9.75
2018-10-16T01:58:44.376Z,9.71
2018-10-16T01:59:44.310Z,9.58
2018-10-16T02:01:37.096Z,9.63
2018-10-16T02:02:37.096Z,9.70
2018-10-16T02:04:29.817Z,9.63
2018-10-16T02:05:29.736Z,9.60
2018-10-16T02:07:22.527Z,9.56
2018-10-16T02:08:22.430Z,9.68
2018-10-16T02:10:15.234Z,9.73
2018-10-16T02:11:15.150Z,9.67
2018-10-16T02:13:07.975Z,9.56
2018-10-16T02:14:07.926Z,9.62
2018-10-16T02:16:00.686Z,9.49
2018-10-16T02:17:00.602Z,9.41
2018-10-16T02:18:53.446Z,9.41
2018-10-16T02:19:53.349Z,9.42
2018-10-16T02:21:45.308Z,9.40
2018-10-16T02:22:45.229Z,9.42
2018-10-16T02:24:37.990Z,9.56
2018-10-16T02:25:37.925Z,9.49
2018-10-16T02:27:30.716Z,9.55
2018-10-16T02:28:30.623Z,9.52
2018-10-16T02:30:23.401Z,9.48
2018-10-16T02:31:23.318Z,9.44
2018-10-16T02:33:16.100Z,9.42
2018-10-16T02:34:16.014Z,9.48
2018-10-16T02:36:08.795Z,9.42
2018-10-16T02:37:08.706Z,9.35
2018-10-16T02:39:01.550Z,9.38
2018-10-16T02:40:01.464Z,9.41
2018-10-16T02:41:54.238Z,9.44
2018-10-16T02:42:54.161Z,9.38
2018-10-16T02:44:46.940Z,9.40
2018-10-16T02:45:46.877Z,9.41
2018-10-16T02:47:39.641Z,9.63
2018-10-16T02:48:39.566Z,9.62
2018-10-16T02:50:32.340Z,9.65
2018-10-16T02:51:32.263Z,9.70
2018-10-16T02:53:25.027Z,9.73
2018-10-16T02:54:24.966Z,9.68
2018-10-16T02:56:17.768Z,9.67
2018-10-16T02:57:17.677Z,9.65
2018-10-16T02:59:10.440Z,9.83
2018-10-16T03:00:10.381Z,9.68
2018-10-16T03:02:03.160Z,9.70
2018-10-16T03:03:03.078Z,9.70
2018-10-16T03:04:55.845Z,9.58
2018-10-16T03:05:55.783Z,9.60
2018-10-16T03:07:48.569Z,9.50
2018-10-16T03:08:48.488Z,9.40
2018-10-16T03:10:41.273Z,9.44
2018-10-16T03:11:41.197Z,9.34
2018-10-16T03:13:33.964Z,9.34
2018-10-16T03:14:33.897Z,9.34
2018-10-16T03:16:26.673Z,9.34
2018-10-16T03:17:26.594Z,9.17
2018-10-16T03:19:19.439Z,9.19
2018-10-16T03:20:19.421Z,9.19
2018-10-16T03:22:12.118Z,9.17
2018-10-16T03:23:12.050Z,9.15
2018-10-16T03:25:04.812Z,9.17
2018-10-16T03:26:04.737Z,9.17
2018-10-16T03:27:56.728Z,9.31
2018-10-16T03:28:56.641Z,9.31
2018-10-16T03:30:48.524Z,9.15
2018-10-16T03:31:48.464Z,9.22
2018-10-16T03:33:41.255Z,9.17
2018-10-16T03:34:41.181Z,9.17
2018-10-16T03:36:33.987Z,9.04
2018-10-16T03:37:33.895Z,9.16
2018-10-16T03:39:26.676Z,9.00
2018-10-16T03:40:26.615Z,9.13
2018-10-16T03:42:19.433Z,9.08
2018-10-16T03:43:19.301Z,8.98
2018-10-16T03:45:11.284Z,8.97
2018-10-16T03:46:11.203Z,8.88
2018-10-16T03:48:03.992Z,8.91
2018-10-16T03:49:03.950Z,8.97
2018-10-16T03:50:56.692Z,8.85
2018-10-16T03:51:56.607Z,8.88
2018-10-16T03:53:49.410Z,8.86
2018-10-16T03:54:49.334Z,8.86
2018-10-16T03:56:42.194Z,8.91
2018-10-16T03:57:42.102Z,8.97
2018-10-16T03:59:34.889Z,8.97
2018-10-16T04:00:34.812Z,8.88
2018-10-16T04:02:27.583Z,8.89
2018-10-16T04:03:27.507Z,8.93
2018-10-16T04:05:20.255Z,8.85
2018-10-16T04:06:20.195Z,8.98
2018-10-16T04:08:11.966Z,9.10
2018-10-16T04:09:11.893Z,9.01
2018-10-16T04:11:04.708Z,9.00
2018-10-16T04:12:04.619Z,9.06
2018-10-16T04:13:57.477Z,8.97
2018-10-16T04:14:57.311Z,8.96
2018-10-16T04:16:49.073Z,8.96
2018-10-16T04:17:49.000Z,8.93
2018-10-16T04:19:41.790Z,8.88
2018-10-16T04:20:41.711Z,8.94
2018-10-16T04:22:34.597Z,8.88
2018-10-16T04:23:34.397Z,8.91
2018-10-16T04:25:27.169Z,8.93
2018-10-16T04:26:27.106Z,8.80
2018-10-16T04:28:19.184Z,8.82
2018-10-16T04:29:19.078Z,8.76
2018-10-16T04:31:11.721Z,8.78
2018-10-16T04:32:11.651Z,8.71
2018-10-16T04:34:04.457Z,8.70
2018-10-16T04:35:04.392Z,8.68
2018-10-16T04:36:57.184Z,8.67
2018-10-16T04:37:57.088Z,8.67
2018-10-16T04:39:49.916Z,8.68
2018-10-16T04:40:49.830Z,8.68
2018-10-16T04:42:42.583Z,8.60
2018-10-16T04:43:42.520Z,8.71
2018-10-16T04:45:35.339Z,8.65
2018-10-16T04:46:35.234Z,8.63
2018-10-16T04:48:27.997Z,8.61
2018-10-16T04:49:27.917Z,8.63
2018-10-16T04:51:20.682Z,8.63
2018-10-16T04:52:20.607Z,8.63
2018-10-16T04:54:12.543Z,8.60
2018-10-16T04:55:12.501Z,8.63
2018-10-16T04:57:05.252Z,8.57
2018-10-16T04:58:05.153Z,8.61
2018-10-16T04:59:57.928Z,8.73
2018-10-16T05:00:57.862Z,8.67
2018-10-16T05:02:50.675Z,8.70
2018-10-16T05:03:50.576Z,8.70
2018-10-16T05:05:43.343Z,8.70
2018-10-16T05:06:43.270Z,8.67
2018-10-16T05:08:35.208Z,8.65
2018-10-16T05:09:35.123Z,8.68
2018-10-16T05:11:27.897Z,8.80
2018-10-16T05:12:27.827Z,8.82
2018-10-16T05:14:20.615Z,8.89
2018-10-16T05:15:20.523Z,8.96
2018-10-16T05:17:13.298Z,9.00
2018-10-16T05:18:13.226Z,8.97
2018-10-16T05:20:06.058Z,8.86
2018-10-16T05:21:05.968Z,8.83
2018-10-16T05:22:57.792Z,8.78
2018-10-16T05:23:57.711Z,8.80
2018-10-16T05:25:50.521Z,8.68
2018-10-16T05:26:50.461Z,8.73
2018-10-16T05:28:43.268Z,8.68
2018-10-16T05:29:43.190Z,8.67
2018-10-16T05:31:36.169Z,8.80
2018-10-16T05:32:35.865Z,8.70
2018-10-16T05:34:28.667Z,8.93
2018-10-16T05:35:28.564Z,8.94
2018-10-16T05:37:20.584Z,9.03
2018-10-16T05:38:20.434Z,9.04
2018-10-16T05:40:13.203Z,9.04
2018-10-16T05:41:13.125Z,9.03
2018-10-16T05:43:05.960Z,9.10
2018-10-16T05:44:05.878Z,9.01
2018-10-16T05:45:58.718Z,9.06
2018-10-16T05:46:58.620Z,8.88
2018-10-16T05:48:51.464Z,8.96
2018-10-16T05:49:51.325Z,9.00
2018-10-16T05:51:44.880Z,8.91
2018-10-16T05:52:44.815Z,8.98
2018-10-16T05:54:37.589Z,9.03
2018-10-16T05:55:37.512Z,9.03
2018-10-16T05:57:30.271Z,9.04
2018-10-16T05:58:30.206Z,9.01
2018-10-16T06:00:22.133Z,9.06
2018-10-16T06:01:22.034Z,9.06
2018-10-16T06:03:13.938Z,9.01
2018-10-16T06:04:13.864Z,9.13
2018-10-16T06:06:06.636Z,9.12
2018-10-16T06:07:06.563Z,9.04
2018-10-16T06:08:59.351Z,9.22
2018-10-16T06:09:59.275Z,9.17
2018-10-16T06:11:52.059Z,9.20
2018-10-16T06:12:51.997Z,9.19
2018-10-16T06:14:44.774Z,9.35
2018-10-16T06:15:44.687Z,9.32
2018-10-16T06:17:37.455Z,9.37
2018-10-16T06:18:37.381Z,9.42
2018-10-16T06:20:29.202Z,9.45
2018-10-16T06:21:29.084Z,9.42
2018-10-16T06:23:21.861Z,9.55
2018-10-16T06:24:21.843Z,9.52
2018-10-16T06:26:14.562Z,9.58
2018-10-16T06:27:14.487Z,9.65
2018-10-16T06:29:06.405Z,9.75
2018-10-16T06:30:06.373Z,9.73
2018-10-16T06:31:59.125Z,9.75
2018-10-16T06:32:59.037Z,9.74
2018-10-16T06:34:51.830Z,9.89
2018-10-16T06:35:51.747Z,9.88
2018-10-16T06:37:43.683Z,10.10
2018-10-16T06:38:43.598Z,10.16
2018-10-16T06:40:36.432Z,10.22
2018-10-16T06:41:36.345Z,10.29
2018-10-16T06:43:29.092Z,10.43
2018-10-16T06:44:29.016Z,10.49
2018-10-16T06:46:20.834Z,10.60
2018-10-16T06:47:20.802Z,10.55
2018-10-16T06:49:13.536Z,10.75
2018-10-16T06:50:13.454Z,10.81
2018-10-16T06:52:06.252Z,10.80
2018-10-16T06:53:06.168Z,10.93
2018-10-16T06:54:58.994Z,11.05
2018-10-16T06:55:58.873Z,11.20
2018-10-16T06:57:51.676Z,11.39
2018-10-16T06:58:51.609Z,11.41
2018-10-16T07:00:44.441Z,11.72
2018-10-16T07:01:44.368Z,11.67
2018-10-16T07:03:37.129Z,11.81
2018-10-16T07:04:37.064Z,11.85
2018-10-16T07:06:29.112Z,11.97
2018-10-16T07:07:28.975Z,12.11
2018-10-16T07:09:21.733Z,12.23
2018-10-16T07:10:21.653Z,12.19
2018-10-16T07:12:14.473Z,12.41
2018-10-16T07:13:14.368Z,12.48
2018-10-16T07:15:07.272Z,12.76
2018-10-16T07:16:07.121Z,12.81
2018-10-16T07:17:59.875Z,12.79
2018-10-16T07:18:59.823Z,12.88
2018-10-16T07:20:51.608Z,12.88
2018-10-16T07:21:51.547Z,12.92
2018-10-16T07:23:44.387Z,13.24
2018-10-16T07:24:44.237Z,13.31
2018-10-16T07:26:37.072Z,13.36
2018-10-16T07:27:37.012Z,13.50
2018-10-16T07:29:29.789Z,13.98
2018-10-16T07:30:29.704Z,14.02
2018-10-16T07:32:21.567Z,14.17
2018-10-16T07:33:21.558Z,14.26
2018-10-16T07:35:14.293Z,14.52
2018-10-16T07:36:14.208Z,14.97
2018-10-16T07:38:07.038Z,15.73
2018-10-16T07:39:06.922Z,16.07
2018-10-16T07:40:58.835Z,17.03
2018-10-16T07:41:58.750Z,17.46
2018-10-16T07:43:51.583Z,18.28
2018-10-16T07:44:51.542Z,18.49
2018-10-16T07:46:44.327Z,18.32
2018-10-16T07:47:44.209Z,17.84
2018-10-16T07:49:36.009Z,17.62
2018-10-16T07:50:35.920Z,17.54
2018-10-16T07:52:27.918Z,18.19
2018-10-16T07:53:27.844Z,18.23
2018-10-16T07:55:20.671Z,17.81
2018-10-16T07:56:20.590Z,17.68
2018-10-16T07:58:13.401Z,17.51
2018-10-16T07:59:13.338Z,17.79
2018-10-16T08:01:05.134Z,18.01
2018-10-16T08:02:05.044Z,17.96
2018-10-16T08:03:57.818Z,17.66
2018-10-16T08:04:57.768Z,17.54
2018-10-16T08:06:50.570Z,17.27
2018-10-16T08:07:50.474Z,17.38
2018-10-16T08:09:42.293Z,17.73
2018-10-16T08:10:42.226Z,17.86
2018-10-16T08:12:35.052Z,18.64
2018-10-16T08:13:34.955Z,18.83
2018-10-16T08:15:26.861Z,19.13
2018-10-16T08:16:26.793Z,19.34
2018-10-16T08:18:19.566Z,19.71
2018-10-16T08:19:19.501Z,19.97
2018-10-16T08:21:12.302Z,20.68
2018-10-16T08:22:12.267Z,20.31
2018-10-16T08:24:04.135Z,21.13
2018-10-16T08:25:04.067Z,21.61
2018-10-16T08:26:56.960Z,22.19
2018-10-16T08:27:56.799Z,22.20
2018-10-16T08:29:50.666Z,22.48
2018-10-16T08:30:51.198Z,22.44
2018-10-16T08:32:43.773Z,22.54
2018-10-16T08:33:43.501Z,22.79
2018-10-16T08:35:35.922Z,22.66
2018-10-16T08:36:35.895Z,22.27
2018-10-16T08:38:28.651Z,22.51
2018-10-16T08:39:28.585Z,22.78
2018-10-16T08:41:21.405Z,23.34
2018-10-16T08:42:21.336Z,23.50
2018-10-16T08:44:14.381Z,23.74
2018-10-16T08:45:14.113Z,23.77
2018-10-16T08:47:07.335Z,23.04
2018-10-16T08:48:07.440Z,22.78
2018-10-16T08:50:00.174Z,22.38
2018-10-16T08:51:00.974Z,22.63
2018-10-16T08:52:54.932Z,22.99
2018-10-16T08:53:54.957Z,23.29
2018-10-16T08:55:47.784Z,23.00
2018-10-16T08:56:47.818Z,22.51
2018-10-16T08:58:40.890Z,22.46
2018-10-16T08:59:40.843Z,22.54
2018-10-16T09:02:33.540Z,22.70
2018-10-16T09:04:26.687Z,23.21
2018-10-16T09:05:26.676Z,23.45
2018-10-16T09:07:19.680Z,23.12
2018-10-16T09:08:19.775Z,22.81
2018-10-16T09:10:12.268Z,22.23
2018-10-16T09:11:12.348Z,21.98
2018-10-16T09:13:05.425Z,22.30
2018-10-16T09:14:05.273Z,22.42
2018-10-16T09:15:56.900Z,22.59
2018-10-16T09:16:56.816Z,22.72
2018-10-16T09:18:49.603Z,22.99
2018-10-16T09:19:49.534Z,23.07
2018-10-16T09:21:41.556Z,22.76
2018-10-16T09:22:41.461Z,22.67
2018-10-16T09:24:34.330Z,22.60
2018-10-16T09:25:34.209Z,22.75
2018-10-16T09:27:27.052Z,23.12
2018-10-16T09:28:26.980Z,22.84
2018-10-16T09:30:19.844Z,22.78
2018-10-16T09:31:19.806Z,22.66
2018-10-16T09:33:12.565Z,22.75
2018-10-16T09:34:12.491Z,23.06
2018-10-16T09:36:05.315Z,23.25
2018-10-16T09:37:05.213Z,23.37
2018-10-16T09:38:57.994Z,23.31
2018-10-16T09:39:57.938Z,23.26
2018-10-16T09:41:50.735Z,23.15
2018-10-16T09:42:50.663Z,22.81
2018-10-16T09:44:43.438Z,22.21
2018-10-16T09:45:43.375Z,22.41
2018-10-16T09:47:36.179Z,22.64
2018-10-16T09:48:36.117Z,22.66
2018-10-16T09:50:28.947Z,22.67
2018-10-16T09:51:28.893Z,22.67
2018-10-16T09:53:21.679Z,22.96
2018-10-16T09:54:21.609Z,23.03
2018-10-16T09:56:14.393Z,22.72
2018-10-16T09:57:14.337Z,22.66
2018-10-16T09:59:07.154Z,22.61
2018-10-16T10:00:07.094Z,22.75
2018-10-16T10:01:59.904Z,22.70
2018-10-16T10:02:59.813Z,22.52
2018-10-16T10:04:52.611Z,22.60
2018-10-16T10:05:52.549Z,22.61
2018-10-16T10:07:45.373Z,22.54
2018-10-16T10:08:45.287Z,22.69
2018-10-16T10:10:38.095Z,22.57
2018-10-16T10:11:38.043Z,22.60
2018-10-16T10:13:30.837Z,22.61
2018-10-16T10:14:30.770Z,22.56
2018-10-16T10:16:23.549Z,22.27
2018-10-16T10:17:23.488Z,22.44
2018-10-16T10:19:16.326Z,22.39
2018-10-16T10:20:16.250Z,22.48
2018-10-16T10:22:08.100Z,22.52
2018-10-16T10:23:08.016Z,22.52
2018-10-16T10:25:00.896Z,22.49
2018-10-16T10:26:00.811Z,22.30
2018-10-16T10:27:53.606Z,22.20
2018-10-16T10:28:53.568Z,22.17
2018-10-16T10:30:46.423Z,22.30
2018-10-16T10:31:46.325Z,22.29
2018-10-16T10:33:39.123Z,22.31
2018-10-16T10:34:39.044Z,22.36
2018-10-16T10:36:31.829Z,22.12
2018-10-16T10:37:31.766Z,22.19
2018-10-16T10:39:24.590Z,22.11
2018-10-16T10:40:24.537Z,22.29
2018-10-16T10:42:17.438Z,22.41
2018-10-16T10:43:17.300Z,22.48
2018-10-16T10:45:10.025Z,22.49
2018-10-16T10:46:09.975Z,22.56
2018-10-16T10:48:01.949Z,22.54
2018-10-16T10:49:01.867Z,22.49
2018-10-16T10:50:54.844Z,22.51
2018-10-16T10:51:54.628Z,22.38
2018-10-16T10:53:47.410Z,22.19
2018-10-16T10:54:47.353Z,22.02
2018-10-16T10:56:40.241Z,22.29
2018-10-16T10:57:40.091Z,22.26
2018-10-16T10:59:32.877Z,22.11
2018-10-16T11:00:32.849Z,21.66
2018-10-16T11:02:25.603Z,21.58
2018-10-16T11:03:25.701Z,21.70
2018-10-16T11:05:18.392Z,21.30
2018-10-16T11:06:18.262Z,21.03
2018-10-16T11:08:11.064Z,20.73
2018-10-16T11:09:11.045Z,20.88
2018-10-16T11:11:03.791Z,21.05
2018-10-16T11:12:03.726Z,21.11
2018-10-16T11:13:56.543Z,21.03
2018-10-16T11:14:56.482Z,21.08
2018-10-16T11:16:49.261Z,21.15
2018-10-16T11:17:49.202Z,21.12
2018-10-16T11:19:41.987Z,21.15
2018-10-16T11:20:41.926Z,21.28
2018-10-16T11:22:34.703Z,21.18
2018-10-16T11:23:34.632Z,21.11
2018-10-16T11:25:27.425Z,21.27
2018-10-16T11:26:27.360Z,21.40
2018-10-16T11:28:20.192Z,21.48
2018-10-16T11:29:20.159Z,21.53
2018-10-16T11:31:12.909Z,21.51
2018-10-16T11:32:12.849Z,21.37
2018-10-16T11:34:05.705Z,21.49
2018-10-16T11:35:05.609Z,21.53
2018-10-16T11:36:57.490Z,21.45
2018-10-16T11:37:57.397Z,21.36
2018-10-16T11:39:50.210Z,21.52
2018-10-16T11:40:50.132Z,21.49
2018-10-16T11:42:42.958Z,21.55
2018-10-16T11:43:42.861Z,21.66
2018-10-16T11:45:34.772Z,21.82
2018-10-16T11:46:34.666Z,21.86
2018-10-16T11:48:27.475Z,21.67
2018-10-16T11:49:27.369Z,21.36
2018-10-16T11:51:20.180Z,21.46
2018-10-16T11:52:20.209Z,21.55
2018-10-16T11:54:11.975Z,21.56
2018-10-16T11:55:11.864Z,21.70
2018-10-16T11:57:04.627Z,21.67
2018-10-16T11:58:04.561Z,21.70
2018-10-16T11:59:57.351Z,21.74
2018-10-16T12:00:57.278Z,21.70
2018-10-16T12:02:50.076Z,21.70
2018-10-16T12:03:50.009Z,21.89
2018-10-16T12:05:42.920Z,22.01
2018-10-16T12:06:42.746Z,22.14
2018-10-16T12:08:35.570Z,22.21
2018-10-16T12:09:35.488Z,22.31
2018-10-16T12:11:28.268Z,22.24
2018-10-16T12:12:28.205Z,22.19
2018-10-16T12:14:21.004Z,22.15
2018-10-16T12:15:20.915Z,22.19
2018-10-16T12:17:13.787Z,22.27
2018-10-16T12:18:13.730Z,22.20
2018-10-16T12:20:06.715Z,22.14
2018-10-16T12:21:06.500Z,22.17
2018-10-16T12:22:58.477Z,22.30
2018-10-16T12:23:58.407Z,22.19
2018-10-16T12:25:51.251Z,22.31
2018-10-16T12:26:51.341Z,22.33
2018-10-16T12:28:42.992Z,22.19
2018-10-16T12:29:42.863Z,22.02
2018-10-16T12:31:34.701Z,22.17
2018-10-16T12:32:34.626Z,22.17
2018-10-16T12:34:27.426Z,22.29
2018-10-16T12:35:27.357Z,22.24
2018-10-16T12:37:20.479Z,22.23
2018-10-16T12:38:20.400Z,22.20
2018-10-16T12:40:13.265Z,22.14
2018-10-16T12:41:13.218Z,22.24
2018-10-16T12:43:06.023Z,22.14
2018-10-16T12:44:05.925Z,22.14
2018-10-16T12:45:58.728Z,22.17
2018-10-16T12:46:58.688Z,22.09
2018-10-16T12:48:51.453Z,22.05
2018-10-16T12:49:51.371Z,21.96
2018-10-16T12:51:44.178Z,21.94
2018-10-16T12:52:44.098Z,21.81
2018-10-16T12:54:36.921Z,21.85
2018-10-16T12:55:36.829Z,21.94
2018-10-16T12:57:29.720Z,21.74
2018-10-16T12:58:29.551Z,21.74
2018-10-16T13:00:22.374Z,21.82
2018-10-16T13:01:22.275Z,21.89
2018-10-16T13:03:15.158Z,21.98
2018-10-16T13:04:15.021Z,21.99
2018-10-16T13:06:07.827Z,22.11
2018-10-16T13:07:07.730Z,21.99
2018-10-16T13:09:00.577Z,21.90
2018-10-16T13:10:00.471Z,21.85
2018-10-16T13:11:52.464Z,21.90
2018-10-16T13:12:52.393Z,21.71
2018-10-16T13:14:45.288Z,21.33
2018-10-16T13:15:45.216Z,21.24
2018-10-16T13:17:38.154Z,21.30
2018-10-16T13:18:37.974Z,21.27
2018-10-16T13:20:30.768Z,21.27
2018-10-16T13:21:30.697Z,21.26
2018-10-16T13:23:23.530Z,21.30
2018-10-16T13:24:23.422Z,21.13
2018-10-16T13:26:16.221Z,20.88
2018-10-16T13:27:16.141Z,20.87
2018-10-16T13:29:09.020Z,20.83
2018-10-16T13:30:08.973Z,20.87
2018-10-16T13:32:01.742Z,20.88
2018-10-16T13:33:01.632Z,20.93
2018-10-16T13:34:54.458Z,20.90
2018-10-16T13:35:54.345Z,20.88
2018-10-16T13:37:47.176Z,21.11
2018-10-16T13:38:47.093Z,21.06
2018-10-16T13:40:39.881Z,21.06
2018-10-16T13:41:39.812Z,21.12
2018-10-16T13:43:32.598Z,21.13
2018-10-16T13:44:32.619Z,21.19
2018-10-16T13:46:25.336Z,21.22
2018-10-16T13:47:25.292Z,21.27
2018-10-16T13:49:18.057Z,21.12
2018-10-16T13:50:17.980Z,21.12
2018-10-16T13:52:09.879Z,21.18
2018-10-16T13:53:09.781Z,21.11
2018-10-16T13:55:02.613Z,21.05
2018-10-16T13:56:02.536Z,21.05
2018-10-16T13:57:55.385Z,20.87
2018-10-16T13:58:55.262Z,20.73
2018-10-16T14:00:48.063Z,20.61
2018-10-16T14:01:47.984Z,20.68
2018-10-16T14:03:40.780Z,20.63
2018-10-16T14:04:40.756Z,20.66
2018-10-16T14:06:33.561Z,20.71
2018-10-16T14:07:33.451Z,20.81
2018-10-16T14:09:26.230Z,20.68
2018-10-16T14:10:26.161Z,20.63
2018-10-16T14:12:18.975Z,20.63
2018-10-16T14:13:18.901Z,20.69
2018-10-16T14:15:11.688Z,20.66
2018-10-16T14:16:11.740Z,20.68
2018-10-16T14:18:04.443Z,20.60
2018-10-16T14:19:04.374Z,20.54
2018-10-16T14:20:57.182Z,20.44
2018-10-16T14:21:57.145Z,20.48
2018-10-16T14:23:49.895Z,20.46
2018-10-16T14:24:49.817Z,20.50
2018-10-16T14:26:42.670Z,20.50
2018-10-16T14:27:42.595Z,20.44
2018-10-16T14:29:35.363Z,20.44
2018-10-16T14:30:35.297Z,20.41
2018-10-16T14:32:28.108Z,20.33
2018-10-16T14:33:28.018Z,20.25
2018-10-16T14:35:20.838Z,20.22
2018-10-16T14:36:20.736Z,20.19
2018-10-16T14:38:12.565Z,20.19
2018-10-16T14:39:12.443Z,20.16
2018-10-16T14:41:05.225Z,20.23
2018-10-16T14:42:05.163Z,20.15
2018-10-16T14:43:58.034Z,20.19
2018-10-16T14:44:57.882Z,20.13
2018-10-16T14:46:50.670Z,19.97
2018-10-16T14:47:50.735Z,20.07
2018-10-16T14:49:43.427Z,20.12
2018-10-16T14:50:43.357Z,20.10
2018-10-16T14:52:36.325Z,20.00
2018-10-16T14:53:36.180Z,19.98
2018-10-16T14:55:28.971Z,19.95
2018-10-16T14:56:28.920Z,19.95
2018-10-16T14:58:21.710Z,19.85
2018-10-16T14:59:21.651Z,19.80
2018-10-16T15:01:14.445Z,19.82
2018-10-16T15:02:14.477Z,19.78
2018-10-16T15:04:07.234Z,19.71
2018-10-16T15:05:07.074Z,19.72
2018-10-16T15:06:59.880Z,19.64
2018-10-16T15:07:59.823Z,19.58
2018-10-16T15:09:52.647Z,19.42
2018-10-16T15:10:52.525Z,19.40
2018-10-16T15:12:45.344Z,19.20
2018-10-16T15:13:45.260Z,19.21
2018-10-16T15:15:38.085Z,19.21
2018-10-16T15:16:38.044Z,19.23
2018-10-16T15:18:30.781Z,19.17
2018-10-16T15:19:30.710Z,19.06
2018-10-16T15:21:23.519Z,18.97
2018-10-16T15:22:23.437Z,18.97
2018-10-16T15:24:16.313Z,18.76
2018-10-16T15:25:16.260Z,18.83
2018-10-16T15:27:09.111Z,18.66
2018-10-16T15:28:09.044Z,18.59
2018-10-16T15:30:01.764Z,18.49
2018-10-16T15:31:01.706Z,18.42
2018-10-16T15:32:54.529Z,18.21
2018-10-16T15:33:54.442Z,18.13
2018-10-16T15:35:47.287Z,18.10
2018-10-16T15:36:47.139Z,17.99
2018-10-16T15:38:39.926Z,17.92
2018-10-16T15:39:39.860Z,17.77
2018-10-16T15:41:32.674Z,17.65
2018-10-16T15:42:32.591Z,17.49
2018-10-16T15:44:25.376Z,17.42
2018-10-16T15:45:25.325Z,17.35
2018-10-16T15:47:18.088Z,17.15
2018-10-16T15:48:18.450Z,17.10
2018-10-16T15:50:10.864Z,17.07
2018-10-16T15:51:10.727Z,17.14
2018-10-16T15:53:05.035Z,17.10
2018-10-16T15:54:04.469Z,17.12
2018-10-16T15:55:57.762Z,17.07
2018-10-16T15:56:57.271Z,17.09
2018-10-16T15:58:50.072Z,17.02
2018-10-16T15:59:49.978Z,16.95
2018-10-16T16:01:43.021Z,16.84
2018-10-16T16:02:42.893Z,16.77
2018-10-16T16:04:35.577Z,16.69
2018-10-16T16:05:35.504Z,16.67
2018-10-16T16:07:28.404Z,16.54
2018-10-16T16:08:28.254Z,16.45
2018-10-16T16:10:21.064Z,16.54
2018-10-16T16:11:21.004Z,16.41
2018-10-16T16:13:13.814Z,16.23
2018-10-16T16:14:13.840Z,16.27
2018-10-16T16:16:06.604Z,16.17
2018-10-16T16:17:06.484Z,16.13
2018-10-16T16:18:58.376Z,16.03
2018-10-16T16:19:58.311Z,16.07
2018-10-16T16:21:51.116Z,15.85
2018-10-16T16:22:51.022Z,15.91
2018-10-16T16:24:44.093Z,15.88
2018-10-16T16:25:43.748Z,15.85
2018-10-16T16:27:36.546Z,15.64
2018-10-16T16:28:36.463Z,15.60
2018-10-16T16:30:28.210Z,15.53
2018-10-16T16:31:28.147Z,15.53
2018-10-16T16:33:47.093Z,15.38
2018-10-16T16:34:47.023Z,15.38
2018-10-16T16:36:39.878Z,15.25
2018-10-16T16:37:39.740Z,15.13
2018-10-16T16:39:32.538Z,15.12
2018-10-16T16:40:32.474Z,15.11
2018-10-16T16:42:25.262Z,14.98
2018-10-16T16:43:25.221Z,15.03
2018-10-16T16:45:17.969Z,14.87
2018-10-16T16:46:17.898Z,14.91
2018-10-16T16:48:09.929Z,14.90
2018-10-16T16:49:09.754Z,14.90
2018-10-16T16:51:02.943Z,14.79
2018-10-16T16:52:02.822Z,14.75
2018-10-16T16:53:55.651Z,14.67
2018-10-16T16:54:55.631Z,14.66
2018-10-16T16:56:48.303Z,14.66
2018-10-16T16:57:48.245Z,14.56
2018-10-16T16:59:41.076Z,14.54
2018-10-16T17:00:40.988Z,14.53
2018-10-16T17:02:33.797Z,14.54
2018-10-16T17:03:33.755Z,14.46
2018-10-16T17:05:26.519Z,14.42
2018-10-16T17:06:26.442Z,14.34
2018-10-16T17:08:19.290Z,14.34
2018-10-16T17:09:19.178Z,14.19
2018-10-16T17:11:11.949Z,14.13
2018-10-16T17:12:11.887Z,14.24
2018-10-16T17:14:04.721Z,14.21
2018-10-16T17:15:04.606Z,14.27
2018-10-16T17:16:56.529Z,14.21
2018-10-16T17:17:56.470Z,14.21
2018-10-16T17:19:48.359Z,14.12
2018-10-16T17:20:48.300Z,14.12
2018-10-16T17:22:40.159Z,14.16
2018-10-16T17:23:40.188Z,14.08
2018-10-16T17:25:33.157Z,14.12
2018-10-16T17:26:32.890Z,14.04
2018-10-16T17:28:25.673Z,14.09
2018-10-16T17:29:25.505Z,14.17
2018-10-16T17:31:18.356Z,14.01
2018-10-16T17:32:18.201Z,13.96
2018-10-16T17:34:11.065Z,13.93
2018-10-16T17:35:10.962Z,13.96
2018-10-16T17:37:03.740Z,13.90
2018-10-16T17:38:03.623Z,13.84
2018-10-16T17:39:56.589Z,13.84
2018-10-16T17:40:56.449Z,13.94
2018-10-16T17:42:49.257Z,13.88
2018-10-16T17:43:49.156Z,13.81
2018-10-16T17:45:41.123Z,13.84
2018-10-16T17:46:41.067Z,13.84
2018-10-16T17:48:33.837Z,13.81
2018-10-16T17:49:33.751Z,13.69
2018-10-16T17:51:26.508Z,13.65
2018-10-16T17:52:26.442Z,13.51
2018-10-16T17:54:19.225Z,13.53
2018-10-16T17:55:19.143Z,13.61
2018-10-16T17:57:12.038Z,13.51
2018-10-16T17:58:11.941Z,13.51
2018-10-16T18:00:04.724Z,13.54
2018-10-16T18:01:04.652Z,13.54
2018-10-16T18:02:56.483Z,13.44
2018-10-16T18:03:56.388Z,13.46
2018-10-16T18:05:49.160Z,13.43
2018-10-16T18:06:49.091Z,13.41
2018-10-16T18:08:40.845Z,13.32
2018-10-16T18:09:40.771Z,13.28
2018-10-16T18:11:33.537Z,13.39
2018-10-16T18:12:33.476Z,13.36
2018-10-16T18:14:26.260Z,13.38
2018-10-16T18:15:26.183Z,13.31
2018-10-16T18:17:18.083Z,13.31
2018-10-16T18:18:18.094Z,13.25
2018-10-16T18:20:10.804Z,13.43
2018-10-16T18:21:10.781Z,13.28
2018-10-16T18:23:03.499Z,13.32
2018-10-16T18:24:03.424Z,13.43
2018-10-16T18:25:55.219Z,13.32
2018-10-16T18:26:55.171Z,13.21
2018-10-16T18:28:47.062Z,13.31
2018-10-16T18:29:47.025Z,13.29
2018-10-16T18:31:39.762Z,13.22
2018-10-16T18:32:39.678Z,13.16
2018-10-16T18:34:31.440Z,13.06
2018-10-16T18:35:31.368Z,13.07
2018-10-16T18:37:23.312Z,13.03
2018-10-16T18:38:23.250Z,13.04
2018-10-16T18:40:15.072Z,12.95
2018-10-16T18:41:14.996Z,12.99
2018-10-16T18:43:07.786Z,13.03